createdAt,value
2023-05-08T00:00:59.067Z,7.07
2023-05-08T00:02:01.952Z,7.05
2023-05-08T00:03:05.437Z,7.04
2023-05-08T00:04:08.607Z,7.03
2023-05-08T00:05:12.070Z,7.00
2023-05-08T00:06:14.949Z,6.98
2023-05-08T00:07:17.838Z,6.95
2023-05-08T00:08:20.853Z,6.94
2023-05-08T00:09:23.872Z,6.93
2023-05-08T00:10:28.071Z,6.92
2023-05-08T00:11:30.873Z,6.90
2023-05-08T00:12:33.785Z,6.88
2023-05-08T00:13:36.597Z,6.87
2023-05-08T00:14:39.438Z,6.85
2023-05-08T00:15:42.434Z,6.83
2023-05-08T00:16:45.314Z,6.81
2023-05-08T00:17:48.314Z,6.79
2023-05-08T00:18:53.504Z,6.78
2023-05-08T00:19:56.774Z,6.76
2023-05-08T00:20:59.850Z,6.75
2023-05-08T00:22:02.626Z,6.74
2023-05-08T00:23:05.604Z,6.72
2023-05-08T00:24:08.473Z,6.72
2023-05-08T00:25:11.576Z,6.71
2023-05-08T00:26:14.623Z,6.70
2023-05-08T00:27:17.460Z,6.69
2023-05-08T00:28:21.299Z,6.67
2023-05-08T00:29:24.091Z,6.64
2023-05-08T00:30:27.306Z,6.63
2023-05-08T00:31:30.377Z,6.62
2023-05-08T00:32:33.533Z,6.59
2023-05-08T00:33:36.384Z,6.55
2023-05-08T00:34:39.366Z,6.53
2023-05-08T00:35:43.000Z,6.52
2023-05-08T00:36:46.145Z,6.50
2023-05-08T00:37:49.033Z,6.48
2023-05-08T00:38:51.904Z,6.47
2023-05-08T00:39:54.663Z,6.46
2023-05-08T00:40:58.226Z,6.44
2023-05-08T00:42:01.334Z,6.41
2023-05-08T00:43:04.121Z,6.40
2023-05-08T00:44:06.904Z,6.39
2023-05-08T00:45:10.135Z,6.38
2023-05-08T00:46:14.092Z,6.37
2023-05-08T00:47:17.182Z,6.36
2023-05-08T00:48:21.208Z,6.34
2023-05-08T00:49:25.133Z,6.28
2023-05-08T00:50:28.607Z,6.21
2023-05-08T00:51:32.981Z,6.17
2023-05-08T00:52:36.336Z,6.16
2023-05-08T00:53:42.884Z,6.13
2023-05-08T00:54:46.894Z,6.10
2023-05-08T00:55:51.815Z,6.07
2023-05-08T00:56:55.727Z,6.06
2023-05-08T00:57:59.737Z,6.04
2023-05-08T00:59:04.404Z,6.05
2023-05-08T01:00:08.426Z,6.04
2023-05-08T01:01:11.823Z,6.03
2023-05-08T01:02:14.977Z,6.02
2023-05-08T01:03:18.888Z,6.02
2023-05-08T01:04:24.935Z,6.02
2023-05-08T01:05:28.419Z,6.02
2023-05-08T01:06:31.900Z,6.00
2023-05-08T01:07:35.033Z,5.98
2023-05-08T01:08:38.188Z,5.95
2023-05-08T01:09:41.359Z,5.94
2023-05-08T01:11:23.545Z,5.94
2023-05-08T01:12:48.873Z,5.90
2023-05-08T01:13:57.466Z,5.82
2023-05-08T01:15:36.384Z,5.78
2023-05-08T01:16:46.616Z,5.77
2023-05-08T01:18:20.002Z,5.77
2023-05-08T01:19:35.693Z,5.75
2023-05-08T01:21:04.143Z,5.74
2023-05-08T01:22:44.613Z,5.74
2023-05-08T01:23:59.562Z,5.71
2023-05-08T01:25:44.174Z,5.70
2023-05-08T01:27:11.910Z,5.68
2023-05-08T01:28:51.686Z,5.64
2023-05-08T01:32:01.462Z,5.57
2023-05-08T01:33:20.106Z,5.54
2023-05-08T01:34:32.347Z,5.53
2023-05-08T01:35:53.328Z,5.53
2023-05-08T01:37:11.571Z,5.52
2023-05-08T01:38:39.836Z,5.50
2023-05-08T01:40:02.127Z,5.50
2023-05-08T01:41:16.600Z,5.49
2023-05-08T01:42:28.583Z,5.47
2023-05-08T01:43:41.627Z,5.47
2023-05-08T01:44:49.480Z,5.48
2023-05-08T01:45:56.465Z,5.47
2023-05-08T01:47:06.854Z,5.47
2023-05-08T01:48:12.053Z,5.47
2023-05-08T01:49:34.279Z,5.45
2023-05-08T01:50:52.886Z,5.42
2023-05-08T01:52:15.704Z,5.42
2023-05-08T01:53:37.159Z,5.42
2023-05-08T01:54:46.997Z,5.41
2023-05-08T01:55:53.129Z,5.40
2023-05-08T01:56:59.511Z,5.40
2023-05-08T01:58:07.385Z,5.41
2023-05-08T01:59:14.794Z,5.41
2023-05-08T02:00:22.290Z,5.38
2023-05-08T02:01:26.353Z,5.39
2023-05-08T02:02:33.236Z,5.39
2023-05-08T02:03:38.413Z,5.40
2023-05-08T02:04:44.317Z,5.41
2023-05-08T02:05:49.764Z,5.40
2023-05-08T02:06:54.403Z,5.40
2023-05-08T02:07:58.773Z,5.38
2023-05-08T02:09:02.228Z,5.37
2023-05-08T02:10:08.130Z,5.37
2023-05-08T02:11:12.698Z,5.37
2023-05-08T02:12:17.483Z,5.36
2023-05-08T02:13:22.031Z,5.35
2023-05-08T02:14:27.568Z,5.34
2023-05-08T02:15:35.968Z,5.33
2023-05-08T02:16:41.091Z,5.32
2023-05-08T02:17:48.511Z,5.32
2023-05-08T02:18:54.000Z,5.32
2023-05-08T02:19:59.002Z,5.32
2023-05-08T02:21:05.530Z,5.32
2023-05-08T02:22:10.306Z,5.31
2023-05-08T02:23:15.813Z,5.29
2023-05-08T02:24:19.605Z,5.27
2023-05-08T02:25:23.024Z,5.26
2023-05-08T02:26:27.237Z,5.25
2023-05-08T02:27:31.449Z,5.24
2023-05-08T02:28:35.469Z,5.23
2023-05-08T02:29:39.911Z,5.23
2023-05-08T02:30:44.878Z,5.22
2023-05-08T02:31:49.463Z,5.22
2023-05-08T02:32:55.176Z,5.21
2023-05-08T02:33:59.742Z,5.20
2023-05-08T02:35:03.973Z,5.20
2023-05-08T02:36:08.441Z,5.20
2023-05-08T02:37:13.095Z,5.20
2023-05-08T02:38:20.134Z,5.20
2023-05-08T02:39:26.436Z,5.19
2023-05-08T02:40:31.402Z,5.17
2023-05-08T02:41:35.734Z,5.15
2023-05-08T02:42:39.227Z,5.13
2023-05-08T02:43:42.613Z,5.13
2023-05-08T02:44:45.708Z,5.12
2023-05-08T02:46:12.729Z,5.11
2023-05-08T02:47:22.348Z,5.11
2023-05-08T02:48:33.413Z,5.10
2023-05-08T02:50:08.558Z,5.10
2023-05-08T02:51:21.276Z,5.08
2023-05-08T02:52:29.670Z,5.07
2023-05-08T02:53:37.525Z,5.05
2023-05-08T02:54:48.174Z,5.04
2023-05-08T02:55:53.864Z,5.03
2023-05-08T02:57:39.669Z,5.00
2023-05-08T02:58:47.496Z,4.99
2023-05-08T02:59:58.748Z,4.97
2023-05-08T03:01:29.156Z,4.97
2023-05-08T03:02:50.838Z,4.97
2023-05-08T03:04:03.568Z,4.95
2023-05-08T03:05:19.220Z,4.94
2023-05-08T03:06:26.037Z,4.94
2023-05-08T03:07:32.304Z,4.94
2023-05-08T03:08:35.633Z,4.94
2023-05-08T03:09:47.283Z,4.95
2023-05-08T03:10:54.190Z,4.96
2023-05-08T03:12:04.855Z,4.95
2023-05-08T03:13:10.527Z,4.92
2023-05-08T03:14:19.788Z,4.91
2023-05-08T03:15:34.914Z,4.88
2023-05-08T03:16:41.694Z,4.86
2023-05-08T03:17:47.501Z,4.86
2023-05-08T03:19:03.784Z,4.86
2023-05-08T03:20:10.384Z,4.88
2023-05-08T03:21:17.660Z,4.89
2023-05-08T03:22:21.618Z,4.91
2023-05-08T03:23:27.598Z,4.93
2023-05-08T03:24:33.712Z,4.92
2023-05-08T03:25:39.874Z,4.93
2023-05-08T03:26:44.039Z,4.94
2023-05-08T03:27:49.112Z,4.92
2023-05-08T03:28:54.202Z,4.90
2023-05-08T03:30:02.694Z,4.89
2023-05-08T03:31:07.400Z,4.90
2023-05-08T03:32:11.991Z,4.92
2023-05-08T03:33:17.687Z,4.93
2023-05-08T03:34:21.772Z,4.94
2023-05-08T03:35:26.852Z,4.95
2023-05-08T03:36:30.736Z,4.96
2023-05-08T03:37:33.899Z,4.97
2023-05-08T03:38:37.292Z,4.97
2023-05-08T03:39:40.701Z,4.98
2023-05-08T03:40:44.208Z,4.99
2023-05-08T03:41:47.975Z,5.02
2023-05-08T03:42:51.337Z,5.03
2023-05-08T03:43:56.093Z,5.05
2023-05-08T03:44:59.549Z,5.08
2023-05-08T03:46:04.778Z,5.09
2023-05-08T03:47:08.211Z,5.11
2023-05-08T03:48:11.911Z,5.13
2023-05-08T03:49:15.310Z,5.16
2023-05-08T03:50:18.401Z,5.18
2023-05-08T03:51:22.129Z,5.21
2023-05-08T03:52:26.195Z,5.22
2023-05-08T03:53:32.174Z,5.24
2023-05-08T03:54:35.556Z,5.25
2023-05-08T03:55:39.399Z,5.26
2023-05-08T03:56:46.023Z,5.27
2023-05-08T03:58:08.849Z,5.29
2023-05-08T03:59:21.111Z,5.32
2023-05-08T04:00:36.622Z,5.35
2023-05-08T04:01:44.218Z,5.38
2023-05-08T04:03:02.242Z,5.42
2023-05-08T04:04:27.206Z,5.46
2023-05-08T04:05:39.703Z,5.50
2023-05-08T04:07:03.739Z,5.52
2023-05-08T04:08:17.373Z,5.52
2023-05-08T04:09:37.666Z,5.53
2023-05-08T04:10:51.036Z,5.55
2023-05-08T04:12:14.181Z,5.54
2023-05-08T04:13:25.989Z,5.55
2023-05-08T04:14:34.790Z,5.55
2023-05-08T04:16:13.582Z,5.58
2023-05-08T04:17:26.014Z,5.63
2023-05-08T04:18:30.739Z,5.67
2023-05-08T04:19:42.922Z,5.70
2023-05-08T04:20:49.377Z,5.75
2023-05-08T04:21:55.870Z,5.79
2023-05-08T04:22:59.688Z,5.83
2023-05-08T04:24:07.339Z,5.88
2023-05-08T04:25:12.769Z,5.92
2023-05-08T04:26:17.830Z,5.96
2023-05-08T04:27:24.380Z,6.01
2023-05-08T04:28:27.253Z,6.05
2023-05-08T04:29:31.037Z,6.09
2023-05-08T04:30:34.461Z,6.14
2023-05-08T04:31:38.654Z,6.19
2023-05-08T04:32:43.594Z,6.23
2023-05-08T04:33:49.362Z,6.27
2023-05-08T04:34:53.122Z,6.32
2023-05-08T04:35:56.902Z,6.36
2023-05-08T04:36:59.878Z,6.41
2023-05-08T04:38:03.298Z,6.46
2023-05-08T04:39:06.161Z,6.50
2023-05-08T04:40:10.800Z,6.54
2023-05-08T04:41:16.024Z,6.56
2023-05-08T04:42:19.785Z,6.60
2023-05-08T04:43:22.662Z,6.64
2023-05-08T04:44:25.620Z,6.68
2023-05-08T04:45:28.581Z,6.74
2023-05-08T04:46:31.450Z,6.80
2023-05-08T04:47:35.076Z,6.84
2023-05-08T04:48:38.481Z,6.89
2023-05-08T04:49:42.580Z,6.94
2023-05-08T04:50:45.437Z,6.99
2023-05-08T04:51:48.323Z,7.05
2023-05-08T04:52:51.114Z,7.11
2023-05-08T04:53:54.012Z,7.16
2023-05-08T04:54:56.907Z,7.22
2023-05-08T04:55:59.836Z,7.31
2023-05-08T04:57:03.410Z,7.39
2023-05-08T04:58:06.454Z,7.47
2023-05-08T04:59:09.410Z,7.56
2023-05-08T05:00:12.842Z,7.65
2023-05-08T05:01:17.208Z,7.73
2023-05-08T05:02:20.573Z,7.80
2023-05-08T05:03:23.722Z,7.86
2023-05-08T05:04:26.640Z,7.93
2023-05-08T05:05:31.217Z,8.01
2023-05-08T05:06:34.275Z,8.08
2023-05-08T05:07:37.166Z,8.13
2023-05-08T05:08:40.127Z,8.19
2023-05-08T05:09:43.192Z,8.26
2023-05-08T05:10:46.017Z,8.31
2023-05-08T05:11:48.860Z,8.37
2023-05-08T05:12:52.381Z,8.45
2023-05-08T05:13:55.304Z,8.53
2023-05-08T05:14:58.848Z,8.62
2023-05-08T05:16:05.548Z,8.70
2023-05-08T05:17:08.518Z,8.77
2023-05-08T05:18:11.751Z,8.85
2023-05-08T05:19:14.848Z,8.94
2023-05-08T05:20:17.847Z,9.04
2023-05-08T05:21:20.777Z,9.15
2023-05-08T05:22:23.636Z,9.27
2023-05-08T05:23:26.621Z,9.37
2023-05-08T05:24:29.505Z,9.44
2023-05-08T05:25:34.801Z,9.51
2023-05-08T05:26:38.104Z,9.57
2023-05-08T05:27:41.034Z,9.61
2023-05-08T05:28:44.142Z,9.68
2023-05-08T05:29:47.137Z,9.75
2023-05-08T05:30:50.146Z,9.80
2023-05-08T05:31:53.689Z,9.88
2023-05-08T05:32:56.810Z,9.95
2023-05-08T05:34:00.566Z,10.00
2023-05-08T05:35:03.575Z,10.03
2023-05-08T05:36:07.984Z,10.04
2023-05-08T05:37:11.105Z,10.04
2023-05-08T05:38:14.021Z,10.05
2023-05-08T05:39:16.835Z,10.08
2023-05-08T05:40:20.255Z,10.11
2023-05-08T05:41:24.574Z,10.13
2023-05-08T05:42:27.709Z,10.14
2023-05-08T05:43:30.818Z,10.17
2023-05-08T05:44:33.730Z,10.20
2023-05-08T05:45:37.050Z,10.24
2023-05-08T05:46:42.176Z,10.30
2023-05-08T05:47:54.048Z,10.40
2023-05-08T05:48:57.713Z,10.49
2023-05-08T05:50:00.541Z,10.54
2023-05-08T05:51:03.794Z,10.56
2023-05-08T05:52:06.855Z,10.58
2023-05-08T05:53:10.045Z,10.64
2023-05-08T05:54:14.520Z,10.69
2023-05-08T05:55:17.523Z,10.76
2023-05-08T05:56:23.492Z,10.84
2023-05-08T05:57:27.475Z,10.94
2023-05-08T05:58:30.592Z,11.01
2023-05-08T05:59:33.780Z,11.06
2023-05-08T06:00:36.697Z,11.13
2023-05-08T06:01:39.655Z,11.20
2023-05-08T06:02:43.019Z,11.26
2023-05-08T06:03:48.393Z,11.32
2023-05-08T06:04:51.920Z,11.38
2023-05-08T06:05:55.859Z,11.43
2023-05-08T06:06:59.307Z,11.45
2023-05-08T06:08:02.089Z,11.47
2023-05-08T06:09:06.979Z,11.50
2023-05-08T06:10:10.359Z,11.54
2023-05-08T06:11:13.214Z,11.58
2023-05-08T06:12:16.507Z,11.63
2023-05-08T06:13:20.399Z,11.68
2023-05-08T06:14:23.431Z,11.74
2023-05-08T06:15:26.813Z,11.80
2023-05-08T06:16:30.651Z,11.86
2023-05-08T06:17:33.797Z,11.90
2023-05-08T06:18:37.425Z,11.93
2023-05-08T06:19:40.431Z,11.96
2023-05-08T06:20:43.387Z,12.01
2023-05-08T06:21:46.373Z,12.04
2023-05-08T06:22:49.156Z,12.08
2023-05-08T06:23:52.241Z,12.13
2023-05-08T06:24:55.054Z,12.18
2023-05-08T06:25:57.801Z,12.23
2023-05-08T06:27:00.840Z,12.28
2023-05-08T06:28:06.515Z,12.33
2023-05-08T06:29:09.371Z,12.37
2023-05-08T06:30:12.438Z,12.41
2023-05-08T06:31:15.335Z,12.46
2023-05-08T06:32:18.425Z,12.47
2023-05-08T06:33:21.313Z,12.47
2023-05-08T06:34:24.861Z,12.49
2023-05-08T06:35:27.731Z,12.53
2023-05-08T06:36:30.785Z,12.55
2023-05-08T06:37:33.727Z,12.59
2023-05-08T06:38:36.477Z,12.64
2023-05-08T06:39:39.965Z,12.69
2023-05-08T06:40:46.029Z,12.76
2023-05-08T06:41:49.316Z,12.80
2023-05-08T06:43:00.140Z,12.84
2023-05-08T06:44:03.024Z,12.89
2023-05-08T06:45:06.814Z,12.92
2023-05-08T06:46:09.668Z,12.94
2023-05-08T06:47:12.478Z,12.96
2023-05-08T06:48:15.441Z,12.98
2023-05-08T06:49:18.255Z,13.01
2023-05-08T06:50:21.174Z,13.07
2023-05-08T06:51:24.095Z,13.12
2023-05-08T06:52:26.972Z,13.18
2023-05-08T06:53:30.041Z,13.24
2023-05-08T06:54:32.818Z,13.28
2023-05-08T06:55:35.813Z,13.32
2023-05-08T06:56:38.628Z,13.37
2023-05-08T06:57:41.480Z,13.43
2023-05-08T06:58:48.333Z,13.48
2023-05-08T07:00:00.382Z,13.52
2023-05-08T07:01:03.421Z,13.54
2023-05-08T07:02:06.408Z,13.58
2023-05-08T07:03:09.405Z,13.62
2023-05-08T07:04:12.506Z,13.63
2023-05-08T07:05:15.745Z,13.64
2023-05-08T07:06:19.060Z,13.69
2023-05-08T07:07:21.800Z,13.76
2023-05-08T07:08:24.521Z,13.79
2023-05-08T07:09:27.533Z,13.80
2023-05-08T07:10:30.429Z,13.84
2023-05-08T07:11:33.762Z,13.89
2023-05-08T07:12:36.523Z,13.95
2023-05-08T07:13:39.272Z,14.01
2023-05-08T07:14:43.432Z,14.05
2023-05-08T07:15:46.216Z,14.06
2023-05-08T07:16:49.171Z,14.06
2023-05-08T07:17:52.014Z,14.09
2023-05-08T07:18:54.787Z,14.13
2023-05-08T07:19:57.567Z,14.17
2023-05-08T07:21:00.296Z,14.22
2023-05-08T07:22:03.502Z,14.29
2023-05-08T07:23:07.037Z,14.34
2023-05-08T07:24:09.880Z,14.39
2023-05-08T07:25:13.103Z,14.40
2023-05-08T07:26:16.139Z,14.40
2023-05-08T07:27:20.149Z,14.42
2023-05-08T07:28:22.914Z,14.41
2023-05-08T07:29:26.972Z,14.42
2023-05-08T07:30:30.223Z,14.42
2023-05-08T07:31:33.067Z,14.45
2023-05-08T07:32:36.378Z,14.46
2023-05-08T07:33:39.283Z,14.47
2023-05-08T07:34:42.317Z,14.51
2023-05-08T07:35:45.469Z,14.53
2023-05-08T07:36:48.294Z,14.55
2023-05-08T07:37:51.139Z,14.58
2023-05-08T07:38:53.914Z,14.63
2023-05-08T07:39:56.721Z,14.68
2023-05-08T07:41:02.017Z,14.72
2023-05-08T07:42:04.981Z,14.75
2023-05-08T07:43:07.817Z,14.79
2023-05-08T07:44:10.683Z,14.81
2023-05-08T07:45:14.226Z,14.84
2023-05-08T07:46:20.717Z,14.85
2023-05-08T07:47:23.604Z,14.85
2023-05-08T07:48:27.095Z,14.89
2023-05-08T07:49:29.941Z,14.91
2023-05-08T07:50:32.756Z,14.94
2023-05-08T07:51:35.540Z,15.00
2023-05-08T07:52:38.422Z,15.04
2023-05-08T07:53:41.808Z,15.08
2023-05-08T07:54:44.599Z,15.12
2023-05-08T07:55:47.451Z,15.16
2023-05-08T07:56:50.389Z,15.20
2023-05-08T07:57:53.137Z,15.23
2023-05-08T07:58:56.181Z,15.24
2023-05-08T08:00:02.212Z,15.22
2023-05-08T08:01:18.155Z,15.18
2023-05-08T08:02:21.412Z,15.17
2023-05-08T08:03:24.460Z,15.22
2023-05-08T08:04:27.998Z,15.28
2023-05-08T08:05:30.888Z,15.34
2023-05-08T08:06:33.830Z,15.41
2023-05-08T08:07:36.795Z,15.43
2023-05-08T08:08:39.665Z,15.48
2023-05-08T08:09:42.744Z,15.55
2023-05-08T08:10:45.567Z,15.62
2023-05-08T08:11:48.406Z,15.65
2023-05-08T08:12:51.243Z,15.67
2023-05-08T08:13:54.059Z,15.67
2023-05-08T08:14:57.066Z,15.63
2023-05-08T08:16:01.034Z,15.61
2023-05-08T08:17:03.941Z,15.60
2023-05-08T08:18:07.056Z,15.63
2023-05-08T08:19:10.844Z,15.66
2023-05-08T08:20:14.393Z,15.68
2023-05-08T08:21:17.316Z,15.73
2023-05-08T08:22:20.125Z,15.76
2023-05-08T08:23:23.044Z,15.81
2023-05-08T08:24:26.430Z,15.85
2023-05-08T08:25:30.005Z,15.83
2023-05-08T08:26:32.804Z,15.79
2023-05-08T08:27:35.654Z,15.72
2023-05-08T08:28:38.516Z,15.68
2023-05-08T08:29:41.562Z,15.67
2023-05-08T08:30:44.728Z,15.71
2023-05-08T08:31:47.508Z,15.76
2023-05-08T08:32:50.746Z,15.79
2023-05-08T08:33:54.006Z,15.83
2023-05-08T08:34:56.916Z,15.86
2023-05-08T08:35:59.917Z,15.91
2023-05-08T08:37:02.735Z,15.92
2023-05-08T08:38:05.596Z,15.87
2023-05-08T08:39:10.935Z,15.83
2023-05-08T08:40:14.917Z,15.83
2023-05-08T08:41:17.856Z,15.88
2023-05-08T08:42:20.732Z,15.96
2023-05-08T08:43:23.611Z,16.05
2023-05-08T08:44:27.796Z,16.08
2023-05-08T08:45:31.137Z,16.12
2023-05-08T08:46:35.871Z,16.17
2023-05-08T08:47:41.718Z,16.22
2023-05-08T08:48:47.062Z,16.26
2023-05-08T08:49:51.732Z,16.28
2023-05-08T08:51:02.452Z,16.30
2023-05-08T08:52:30.679Z,16.35
2023-05-08T08:53:37.961Z,16.36
2023-05-08T08:54:44.178Z,16.39
2023-05-08T08:55:50.421Z,16.42
2023-05-08T08:56:55.844Z,16.45
2023-05-08T08:58:15.039Z,16.48
2023-05-08T08:59:18.680Z,16.51
2023-05-08T09:00:23.666Z,16.53
2023-05-08T09:01:29.462Z,16.55
2023-05-08T09:02:32.522Z,16.59
2023-05-08T09:03:35.750Z,16.59
2023-05-08T09:04:39.095Z,16.59
2023-05-08T09:05:44.077Z,16.61
2023-05-08T09:06:47.288Z,16.64
2023-05-08T09:07:54.238Z,16.70
2023-05-08T09:08:58.817Z,16.77
2023-05-08T09:10:02.776Z,16.79
2023-05-08T09:11:05.628Z,16.80
2023-05-08T09:12:08.894Z,16.80
2023-05-08T09:13:11.959Z,16.83
2023-05-08T09:14:15.493Z,16.84
2023-05-08T09:15:19.579Z,16.84
2023-05-08T09:16:23.929Z,16.85
2023-05-08T09:17:26.710Z,16.88
2023-05-08T09:18:29.471Z,16.87
2023-05-08T09:19:33.763Z,16.88
2023-05-08T09:20:36.903Z,16.91
2023-05-08T09:21:40.049Z,16.94
2023-05-08T09:22:44.223Z,16.97
2023-05-08T09:24:01.443Z,16.94
2023-05-08T09:25:04.682Z,16.90
2023-05-08T09:26:07.531Z,16.88
2023-05-08T09:27:21.165Z,16.88
2023-05-08T09:28:25.603Z,16.88
2023-05-08T09:29:28.508Z,16.86
2023-05-08T09:30:31.723Z,16.82
2023-05-08T09:31:35.834Z,16.78
2023-05-08T09:32:41.283Z,16.78
2023-05-08T09:33:45.582Z,16.79
2023-05-08T09:34:52.639Z,16.75
2023-05-08T09:35:56.971Z,16.72
2023-05-08T09:37:05.913Z,16.71
2023-05-08T09:38:08.858Z,16.69
2023-05-08T09:39:12.773Z,16.67
2023-05-08T09:40:22.468Z,16.68
2023-05-08T09:41:26.740Z,16.65
2023-05-08T09:42:37.969Z,16.61
2023-05-08T09:43:42.149Z,16.54
2023-05-08T09:44:47.581Z,16.46
2023-05-08T09:45:50.441Z,16.37
2023-05-08T09:47:10.853Z,16.37
2023-05-08T09:48:13.512Z,16.40
2023-05-08T09:49:19.821Z,16.39
2023-05-08T09:50:23.288Z,16.40
2023-05-08T09:51:28.352Z,16.42
2023-05-08T09:52:33.094Z,16.44
2023-05-08T09:53:36.022Z,16.42
2023-05-08T09:54:39.116Z,16.43
2023-05-08T09:55:48.610Z,16.45
2023-05-08T09:56:51.594Z,16.46
2023-05-08T09:57:57.320Z,16.44
2023-05-08T09:59:02.806Z,16.44
2023-05-08T10:00:09.953Z,16.51
2023-05-08T10:01:33.109Z,16.62
2023-05-08T10:02:36.697Z,16.72
2023-05-08T10:03:51.833Z,16.76
2023-05-08T10:04:54.772Z,16.80
2023-05-08T10:06:13.356Z,16.81
2023-05-08T10:07:16.329Z,16.80
2023-05-08T10:08:21.215Z,16.79
2023-05-08T10:09:24.116Z,16.85
2023-05-08T10:10:28.871Z,16.88
2023-05-08T10:11:31.811Z,16.88
2023-05-08T10:12:35.027Z,16.93
2023-05-08T10:13:37.931Z,16.97
2023-05-08T10:14:40.824Z,17.02
2023-05-08T10:15:45.022Z,17.03
2023-05-08T10:16:49.952Z,17.08
2023-05-08T10:18:06.368Z,17.14
2023-05-08T10:19:14.558Z,17.19
2023-05-08T10:20:21.605Z,17.24
2023-05-08T10:21:28.687Z,17.25
2023-05-08T10:22:36.315Z,17.27
2023-05-08T10:23:40.321Z,17.29
2023-05-08T10:24:44.452Z,17.31
2023-05-08T10:25:54.137Z,17.32
2023-05-08T10:27:07.475Z,17.32
2023-05-08T10:28:16.869Z,17.39
2023-05-08T10:29:25.102Z,17.44
2023-05-08T10:30:30.862Z,17.49
2023-05-08T10:31:40.651Z,17.47
2023-05-08T10:32:45.484Z,17.38
2023-05-08T10:33:51.659Z,17.27
2023-05-08T10:34:59.005Z,17.20
2023-05-08T10:36:02.094Z,17.21
2023-05-08T10:37:06.155Z,17.27
2023-05-08T10:38:09.630Z,17.35
2023-05-08T10:39:15.521Z,17.43
2023-05-08T10:40:21.685Z,17.48
2023-05-08T10:41:26.005Z,17.52
2023-05-08T10:42:29.221Z,17.57
2023-05-08T10:43:32.498Z,17.65
2023-05-08T10:44:35.546Z,17.73
2023-05-08T10:45:38.573Z,17.81
2023-05-08T10:46:51.791Z,17.86
2023-05-08T10:48:25.706Z,17.89
2023-05-08T10:49:34.974Z,17.86
2023-05-08T10:50:51.446Z,17.83
2023-05-08T10:52:24.347Z,17.84
2023-05-08T10:53:40.095Z,17.88
2023-05-08T10:55:04.589Z,17.96
2023-05-08T10:56:07.749Z,18.02
2023-05-08T10:57:11.834Z,18.05
2023-05-08T10:58:28.439Z,18.07
2023-05-08T10:59:35.869Z,18.09
2023-05-08T11:00:54.067Z,18.13
2023-05-08T11:02:07.296Z,18.19
2023-05-08T11:03:20.123Z,18.22
2023-05-08T11:04:30.657Z,18.24
2023-05-08T11:05:46.489Z,18.28
2023-05-08T11:06:53.060Z,18.32
2023-05-08T11:07:57.922Z,18.36
2023-05-08T11:09:01.082Z,18.40
2023-05-08T11:10:13.217Z,18.46
2023-05-08T11:11:27.705Z,18.55
2023-05-08T11:12:31.644Z,18.58
2023-05-08T11:13:39.931Z,18.51
2023-05-08T11:14:43.977Z,18.43
2023-05-08T11:15:51.061Z,18.37
2023-05-08T11:16:54.057Z,18.41
2023-05-08T11:17:56.955Z,18.47
2023-05-08T11:19:19.828Z,18.60
2023-05-08T11:20:41.859Z,18.78
2023-05-08T11:22:16.263Z,18.97
2023-05-08T11:23:27.378Z,19.22
2023-05-08T11:24:36.916Z,19.45
2023-05-08T11:25:44.310Z,19.68
2023-05-08T11:26:50.005Z,19.86
2023-05-08T11:27:52.793Z,20.00
2023-05-08T11:28:57.427Z,20.06
2023-05-08T11:30:19.869Z,20.14
2023-05-08T11:31:23.345Z,20.29
2023-05-08T11:33:04.903Z,20.42
2023-05-08T11:34:43.269Z,20.52
2023-05-08T11:35:52.393Z,20.52
2023-05-08T11:37:02.518Z,20.58
2023-05-08T11:38:30.674Z,20.73
2023-05-08T11:39:33.538Z,20.92
2023-05-08T11:41:07.429Z,21.04
2023-05-08T11:42:34.144Z,21.12
2023-05-08T11:44:10.500Z,21.21
2023-05-08T11:45:14.304Z,21.40
2023-05-08T11:46:20.467Z,21.50
2023-05-08T11:47:25.815Z,21.59
2023-05-08T11:48:28.806Z,21.73
2023-05-08T11:49:31.684Z,21.90
2023-05-08T11:50:36.112Z,22.01
2023-05-08T11:51:39.191Z,22.12
2023-05-08T11:52:43.050Z,22.33
2023-05-08T11:53:47.001Z,22.51
2023-05-08T11:54:49.866Z,22.63
2023-05-08T11:55:53.426Z,22.70
2023-05-08T11:56:57.538Z,22.85
2023-05-08T11:58:00.396Z,22.97
2023-05-08T11:59:04.941Z,23.02
2023-05-08T12:00:10.133Z,23.10
2023-05-08T12:01:19.879Z,23.18
2023-05-08T12:02:43.849Z,23.18
2023-05-08T12:03:46.940Z,23.14
2023-05-08T12:04:49.793Z,23.20
2023-05-08T12:05:56.314Z,23.31
2023-05-08T12:06:59.609Z,23.48
2023-05-08T12:08:04.285Z,23.71
2023-05-08T12:09:16.127Z,23.88
2023-05-08T12:10:19.157Z,24.04
2023-05-08T12:11:24.622Z,24.16
2023-05-08T12:12:38.236Z,24.22
2023-05-08T12:13:41.108Z,24.30
2023-05-08T12:14:43.919Z,24.41
2023-05-08T12:15:48.310Z,24.59
2023-05-08T12:16:51.462Z,24.63
2023-05-08T12:18:03.639Z,24.59
2023-05-08T12:19:11.361Z,24.64
2023-05-08T12:20:16.035Z,24.79
2023-05-08T12:21:19.660Z,24.83
2023-05-08T12:22:22.427Z,24.84
2023-05-08T12:23:26.371Z,24.83
2023-05-08T12:24:29.364Z,24.84
2023-05-08T12:25:32.262Z,24.86
2023-05-08T12:26:37.284Z,24.92
2023-05-08T12:27:40.313Z,25.07
2023-05-08T12:28:45.701Z,25.30
2023-05-08T12:29:48.516Z,25.58
2023-05-08T12:30:51.688Z,25.78
2023-05-08T12:31:55.882Z,25.95
2023-05-08T12:32:59.204Z,26.18
2023-05-08T12:34:04.491Z,26.48
2023-05-08T12:35:12.252Z,26.79
2023-05-08T12:36:15.198Z,27.04
2023-05-08T12:37:27.344Z,27.11
2023-05-08T12:38:30.247Z,27.21
2023-05-08T12:39:37.641Z,27.25
2023-05-08T12:40:42.716Z,27.53
2023-05-08T12:41:49.628Z,27.85
2023-05-08T12:42:52.669Z,28.10
2023-05-08T12:43:57.198Z,28.37
2023-05-08T12:45:00.155Z,28.53
2023-05-08T12:46:05.437Z,28.61
2023-05-08T12:47:08.297Z,28.70
2023-05-08T12:48:13.407Z,28.81
2023-05-08T12:49:24.242Z,28.73
2023-05-08T12:50:27.461Z,28.74
2023-05-08T12:51:31.435Z,28.86
2023-05-08T12:52:36.773Z,29.04
2023-05-08T12:53:39.657Z,29.26
2023-05-08T12:54:49.371Z,29.28
2023-05-08T12:55:54.331Z,29.34
2023-05-08T12:56:57.441Z,29.41
2023-05-08T12:58:04.585Z,29.48
2023-05-08T12:59:07.560Z,29.54
2023-05-08T13:00:11.445Z,29.54
2023-05-08T13:01:16.146Z,29.54
2023-05-08T13:02:24.237Z,29.59
2023-05-08T13:03:29.565Z,29.59
2023-05-08T13:04:37.266Z,29.53
2023-05-08T13:05:45.081Z,29.46
2023-05-08T13:06:57.472Z,29.51
2023-05-08T13:08:05.690Z,29.66
2023-05-08T13:09:08.777Z,29.84
2023-05-08T13:10:11.857Z,30.04
2023-05-08T13:11:28.008Z,30.23
2023-05-08T13:12:31.842Z,30.27
2023-05-08T13:13:36.301Z,30.34
2023-05-08T13:14:39.477Z,30.49
2023-05-08T13:15:42.884Z,30.55
2023-05-08T13:16:48.075Z,30.65
2023-05-08T13:17:51.554Z,30.68
2023-05-08T13:18:54.478Z,30.52
2023-05-08T13:19:57.398Z,30.45
2023-05-08T13:21:02.182Z,30.56
2023-05-08T13:22:05.172Z,30.60
2023-05-08T13:23:09.302Z,30.68
2023-05-08T13:24:12.266Z,30.70
2023-05-08T13:25:22.051Z,30.61
2023-05-08T14:12:57.320Z,30.11
2023-05-08T14:14:01.249Z,30.18
2023-05-08T14:15:21.395Z,30.14
2023-05-08T14:16:34.021Z,30.04
2023-05-08T14:19:03.842Z,30.39
2023-05-08T14:20:06.140Z,30.54
2023-05-08T14:21:07.927Z,30.56
2023-05-08T14:22:09.451Z,30.72
2023-05-08T14:23:10.898Z,30.77
2023-05-08T14:24:12.653Z,30.63
2023-05-08T14:25:14.287Z,30.60
2023-05-08T14:26:15.942Z,30.58
2023-05-08T14:27:17.384Z,30.60
2023-05-08T14:28:18.735Z,30.72
2023-05-08T14:29:20.600Z,30.81
2023-05-08T14:30:22.138Z,30.82
2023-05-08T14:31:23.566Z,30.78
2023-05-08T14:32:25.039Z,30.90
2023-05-08T14:33:27.052Z,31.10
2023-05-08T14:34:28.886Z,31.17
2023-05-08T14:35:30.295Z,31.14
2023-05-08T14:36:32.191Z,31.24
2023-05-08T14:37:33.662Z,31.49
2023-05-08T14:38:35.110Z,31.67
2023-05-08T14:39:36.610Z,31.67
2023-05-08T14:40:37.988Z,31.51
2023-05-08T14:41:39.809Z,31.43
2023-05-08T14:42:41.381Z,31.36
2023-05-08T14:43:43.304Z,31.27
2023-05-08T14:44:45.004Z,31.29
2023-05-08T14:45:47.380Z,31.41
2023-05-08T14:46:51.259Z,31.48
2023-05-08T14:47:52.887Z,31.55
2023-05-08T14:48:55.583Z,31.72
2023-05-08T14:49:58.721Z,31.81
2023-05-08T14:51:00.276Z,31.79
2023-05-08T14:52:01.892Z,31.75
2023-05-08T14:53:03.579Z,31.82
2023-05-08T14:54:05.981Z,31.94
2023-05-08T14:55:08.770Z,31.89
2023-05-08T14:56:10.876Z,31.96
2023-05-08T14:57:12.481Z,31.85
2023-05-08T14:58:14.219Z,31.82
2023-05-08T14:59:15.665Z,31.99
2023-05-08T15:00:18.320Z,32.09
2023-05-08T15:01:20.109Z,32.14
2023-05-08T15:02:23.062Z,32.13
2023-05-08T15:03:25.252Z,32.07
2023-05-08T15:04:26.950Z,31.83
2023-05-08T15:05:28.904Z,31.60
2023-05-08T15:06:31.656Z,31.42
2023-05-08T15:07:33.837Z,31.25
2023-05-08T15:08:35.437Z,31.27
2023-05-08T15:09:36.966Z,31.42
2023-05-08T15:10:38.668Z,31.35
2023-05-08T15:11:40.459Z,30.94
2023-05-08T15:12:42.046Z,30.45
2023-05-08T15:13:43.585Z,30.11